Time;durP1;ratioP1;P1;durP2;ratioP2;P2;SDS_P1;SDS_P2;PMS_P1;PMS_P2;Temp;Humidity;BMP_temperature;BMP_pressure;BME280_temperature;BME280_humidity;BME280_pressure;Samples;Min_cycle;Max_cycle;Signal;HPM_P1;HPM_P2
2024/01/12 00:02:17;;;;;;;;;;;1.50;99.90;;;;;;5046076;28;20357;-76
2024/01/12 00:04:42;;;;;;;;;;;1.50;99.90;;;;;;5050712;28;19928;-77
2024/01/12 00:07:07;;;;;;;;;;;1.60;99.90;;;;;;5042348;28;19932;-76
2024/01/12 00:09:33;;;;;;;;;;;1.60;99.90;;;;;;5065549;28;19928;-76
2024/01/12 00:11:59;;;;;;;;;;;1.60;99.90;;;;;;5048504;28;20050;-75
2024/01/12 00:14:24;;;;;;;;;;;1.70;99.90;;;;;;5041513;28;20433;-76
2024/01/12 00:16:50;;;;;;;;;;;1.70;99.90;;;;;;5039755;28;20303;-75
2024/01/12 00:19:17;;;;;;;;;;;1.50;99.90;;;;;;5050850;28;19974;-76
2024/01/12 00:21:43;;;;;;;;;;;1.80;99.90;;;;;;5051316;28;19924;-76
2024/01/12 00:24:09;;;;;;;;;;;1.90;99.90;;;;;;5049566;28;19924;-76
2024/01/12 00:26:35;;;;;;;;;;;1.90;99.90;;;;;;5035937;28;20550;-76
2024/01/12 00:29:00;;;;;;;;;;;2.00;99.90;;;;;;5045008;28;20007;-76
2024/01/12 00:31:26;;;;;;;;;;;1.80;99.90;;;;;;5045901;28;20370;-76
2024/01/12 00:33:51;;;;;;;;;;;1.90;99.90;;;;;;5047299;28;19976;-76
2024/01/12 00:36:17;;;;;;;;;;;1.90;99.90;;;;;;5049697;28;19924;-76
2024/01/12 00:38:42;;;;;;;;;;;1.90;99.90;;;;;;5050044;28;19974;-76
2024/01/12 00:41:08;;;;;;;;;;;1.90;99.90;;;;;;5049680;28;19925;-76
2024/01/12 00:43:34;;;;;;;;;;;1.90;99.90;;;;;;5049026;28;19917;-76
2024/01/12 00:46:00;;;;;;;;;;;1.90;99.90;;;;;;5048190;28;19928;-75
2024/01/12 00:48:26;;;;;;;;;;;1.90;99.90;;;;;;5050179;28;19916;-76
2024/01/12 00:50:51;;;;;;;;;;;1.90;99.90;;;;;;5046663;28;19925;-76
2024/01/12 00:53:17;;;;;;;;;;;1.60;99.90;;;;;;5043246;28;19920;-75
2024/01/12 00:55:42;;;;;;;;;;;2.00;99.90;;;;;;5045732;28;20062;-76
2024/01/12 00:58:08;;;;;;;;;;;2.10;99.90;;;;;;5046114;28;19929;-75
2024/01/12 01:00:33;;;;;;;;;;;3.70;99.90;;;;;;5047155;28;19917;-76
2024/01/12 01:03:02;;;;;;;;;;;2.20;99.90;;;;;;5048488;28;20284;-76
2024/01/12 01:05:28;;;;;;;;;;;3.40;99.90;;;;;;5047808;28;19924;-76
2024/01/12 01:07:53;;;;;;;;;;;2.30;99.90;;;;;;5049587;28;19917;-76
2024/01/12 01:10:19;;;;;;;;;;;2.30;99.90;;;;;;5048974;28;20444;-76
2024/01/12 01:12:44;;;;;;;;;;;2.30;99.90;;;;;;5045792;28;19920;-76
2024/01/12 01:15:13;;;;;;;;;;;2.30;99.90;;;;;;5048291;28;19928;-76
2024/01/12 01:17:39;;;;;;;;;;;2.30;99.90;;;;;;5048754;28;19921;-77
2024/01/12 01:20:05;;;;;;;;;;;2.30;99.90;;;;;;5047355;28;19921;-77
2024/01/12 01:22:33;;;;;;;;;;;2.40;99.90;;;;;;5041928;28;19928;-76
2024/01/12 01:24:59;;;;;;;;;;;2.40;99.90;;;;;;5048123;28;19932;-76
2024/01/12 01:27:25;;;;;;;;;;;2.40;99.90;;;;;;5040519;28;19925;-76
2024/01/12 01:29:51;;;;;;;;;;;2.40;99.90;;;;;;5046117;28;19925;-76
2024/01/12 01:32:16;;;;;;;;;;;2.40;99.90;;;;;;5046472;28;19927;-75
2024/01/12 01:34:42;;;;;;;;;;;2.40;99.90;;;;;;5047947;28;20423;-75
2024/01/12 01:37:07;;;;;;;;;;;2.40;99.90;;;;;;5049943;28;19921;-75
2024/01/12 01:39:33;;;;;;;;;;;2.60;99.90;;;;;;5049433;28;19924;-75
2024/01/12 01:41:58;;;;;;;;;;;2.60;99.90;;;;;;5049426;28;19921;-76
2024/01/12 01:44:25;;;;;;;;;;;2.40;99.90;;;;;;5045790;28;19947;-76
2024/01/12 01:46:51;;;;;;;;;;;2.40;99.90;;;;;;5046580;28;20288;-76
2024/01/12 01:49:17;;;;;;;;;;;2.40;99.90;;;;;;5048760;28;19920;-76
2024/01/12 01:51:43;;;;;;;;;;;3.40;99.90;;;;;;5049056;28;19943;-76
2024/01/12 01:54:08;;;;;;;;;;;2.50;99.90;;;;;;5049637;28;19925;-76
2024/01/12 01:56:35;;;;;;;;;;;2.40;99.90;;;;;;5043787;28;19921;-76
2024/01/12 01:59:01;;;;;;;;;;;2.40;99.90;;;;;;5045607;28;19928;-76
2024/01/12 02:01:27;;;;;;;;;;;2.40;99.90;;;;;;5048126;28;20360;-76
2024/01/12 02:03:53;;;;;;;;;;;2.40;99.90;;;;;;5040762;28;20423;-76
2024/01/12 02:06:18;;;;;;;;;;;2.50;99.90;;;;;;5037240;28;20283;-76
2024/01/12 02:08:44;;;;;;;;;;;2.50;99.90;;;;;;5047068;28;19924;-75
2024/01/12 02:11:10;;;;;;;;;;;2.50;99.90;;;;;;5045920;28;19921;-76
2024/01/12 02:13:35;;;;;;;;;;;2.50;99.90;;;;;;5044073;28;19935;-76
2024/01/12 02:16:01;;;;;;;;;;;2.50;99.90;;;;;;5042012;28;19963;-77
2024/01/12 02:18:26;;;;;;;;;;;2.80;99.90;;;;;;5040896;28;20038;-76
2024/01/12 02:20:56;;;;;;;;;;;2.50;99.90;;;;;;5042440;28;19921;-76
2024/01/12 02:23:22;;;;;;;;;;;2.60;99.90;;;;;;5039173;28;20019;-75
2024/01/12 02:25:48;;;;;;;;;;;2.60;99.90;;;;;;5047424;28;20273;-75
2024/01/12 02:28:14;;;;;;;;;;;2.60;99.90;;;;;;5043232;28;19924;-76
2024/01/12 02:30:39;;;;;;;;;;;2.60;99.90;;;;;;5045698;28;19924;-75
2024/01/12 02:33:08;;;;;;;;;;;2.50;99.90;;;;;;5035595;28;19931;-75
2024/01/12 02:35:34;;;;;;;;;;;2.50;99.90;;;;;;5033977;28;19927;-76
2024/01/12 02:37:59;;;;;;;;;;;2.50;99.90;;;;;;5044560;28;19920;-75
2024/01/12 02:40:25;;;;;;;;;;;2.40;99.90;;;;;;5040682;28;19927;-75
2024/01/12 02:42:50;;;;;;;;;;;2.40;99.90;;;;;;5062824;28;19928;-75
2024/01/12 02:45:16;;;;;;;;;;;2.30;99.90;;;;;;5068642;28;19928;-75
2024/01/12 02:47:44;;;;;;;;;;;2.30;99.90;;;;;;5050614;28;19958;-75
2024/01/12 02:50:10;;;;;;;;;;;2.20;99.90;;;;;;5044443;28;20090;-74
2024/01/12 02:52:36;;;;;;;;;;;2.20;99.90;;;;;;5045004;28;20011;-75
2024/01/12 02:55:04;;;;;;;;;;;2.10;99.90;;;;;;5046451;28;20272;-75
2024/01/12 02:57:30;;;;;;;;;;;2.10;99.90;;;;;;5056930;28;19920;-76
2024/01/12 02:59:55;;;;;;;;;;;2.00;99.90;;;;;;5048105;28;20308;-76
2024/01/12 03:02:21;;;;;;;;;;;2.10;99.90;;;;;;5046988;28;20281;-76
2024/01/12 03:04:46;;;;;;;;;;;2.00;99.90;;;;;;5045729;28;20355;-77
2024/01/12 03:07:12;;;;;;;;;;;2.00;99.90;;;;;;5048894;28;19931;-76
2024/01/12 03:09:37;;;;;;;;;;;2.00;99.90;;;;;;5047277;28;20373;-76
2024/01/12 03:12:03;;;;;;;;;;;2.00;99.90;;;;;;5049181;28;19939;-76
2024/01/12 03:14:29;;;;;;;;;;;2.00;99.90;;;;;;5038453;28;20011;-76
2024/01/12 03:16:54;;;;;;;;;;;1.90;99.90;;;;;;5048440;28;19920;-76
2024/01/12 03:19:20;;;;;;;;;;;2.00;99.90;;;;;;5049095;28;19924;-76
2024/01/12 03:21:45;;;;;;;;;;;1.90;99.90;;;;;;5048959;28;19920;-76
2024/01/12 03:24:11;;;;;;;;;;;1.90;99.90;;;;;;5041761;28;20580;-76
2024/01/12 03:26:39;;;;;;;;;;;1.90;99.90;;;;;;5035350;28;19928;-76
2024/01/12 03:29:04;;;;;;;;;;;1.90;99.90;;;;;;5040640;28;19978;-76
2024/01/12 03:31:30;;;;;;;;;;;1.90;99.90;;;;;;5047076;28;19935;-76
2024/01/12 03:33:56;;;;;;;;;;;1.90;99.90;;;;;;5033891;28;19963;-76
2024/01/12 03:36:26;;;;;;;;;;;2.00;99.90;;;;;;5048955;28;19935;-76
2024/01/12 03:38:53;;;;;;;;;;;2.00;99.90;;;;;;5048433;28;19951;-76
2024/01/12 03:41:18;;;;;;;;;;;2.10;99.90;;;;;;5049868;28;19964;-75
2024/01/12 03:43:44;;;;;;;;;;;2.00;99.90;;;;;;5060898;28;19960;-76
2024/01/12 03:46:09;;;;;;;;;;;2.00;99.90;;;;;;5043447;28;19927;-75
2024/01/12 03:48:35;;;;;;;;;;;2.10;99.90;;;;;;5044152;28;20482;-76
2024/01/12 03:51:01;;;;;;;;;;;2.10;99.90;;;;;;5051578;28;19927;-76
2024/01/12 03:53:26;;;;;;;;;;;2.10;99.90;;;;;;5072314;28;19920;-76
2024/01/12 03:55:52;;;;;;;;;;;2.10;99.90;;;;;;5050928;28;19920;-76
2024/01/12 03:58:18;;;;;;;;;;;2.10;99.90;;;;;;5036707;28;19921;-76
2024/01/12 04:00:43;;;;;;;;;;;2.10;99.90;;;;;;5051447;28;19936;-76
2024/01/12 04:03:09;;;;;;;;;;;2.10;99.90;;;;;;5047545;28;19920;-76
2024/01/12 04:05:34;;;;;;;;;;;2.10;99.90;;;;;;5043721;28;20391;-76
2024/01/12 04:08:00;;;;;;;;;;;2.20;99.90;;;;;;5050956;28;19920;-76
2024/01/12 04:10:25;;;;;;;;;;;2.20;99.90;;;;;;5048844;28;19920;-76
2024/01/12 04:12:51;;;;;;;;;;;2.20;99.90;;;;;;5070945;28;19928;-76
2024/01/12 04:15:16;;;;;;;;;;;2.20;99.90;;;;;;5053537;28;19924;-76
2024/01/12 04:17:42;;;;;;;;;;;2.20;99.90;;;;;;5054639;28;19965;-76
2024/01/12 04:20:08;;;;;;;;;;;2.20;99.90;;;;;;5054224;28;20408;-75
2024/01/12 04:22:34;;;;;;;;;;;2.20;99.90;;;;;;5049042;28;20063;-75
2024/01/12 04:24:59;;;;;;;;;;;3.80;99.90;;;;;;5043520;28;19969;-75
2024/01/12 04:27:26;;;;;;;;;;;2.20;99.90;;;;;;5047825;28;20013;-75
2024/01/12 04:29:52;;;;;;;;;;;2.20;99.90;;;;;;5050977;28;19924;-75
2024/01/12 04:32:17;;;;;;;;;;;2.20;99.90;;;;;;5053038;28;19935;-75
2024/01/12 04:34:43;;;;;;;;;;;2.20;99.90;;;;;;5041220;28;19952;-75
2024/01/12 04:37:08;;;;;;;;;;;2.20;99.90;;;;;;5053112;28;19931;-75
2024/01/12 04:39:34;;;;;;;;;;;2.20;99.90;;;;;;5053664;28;19936;-75
2024/01/12 04:42:00;;;;;;;;;;;2.20;99.90;;;;;;5036639;28;19928;-75
2024/01/12 04:44:25;;;;;;;;;;;2.20;99.90;;;;;;5051831;28;19998;-75
2024/01/12 04:46:51;;;;;;;;;;;2.20;99.90;;;;;;5046677;28;19920;-75
2024/01/12 04:49:16;;;;;;;;;;;2.20;99.90;;;;;;5069791;28;19928;-75
2024/01/12 04:51:42;;;;;;;;;;;2.20;99.90;;;;;;5049234;28;19967;-75
2024/01/12 04:54:07;;;;;;;;;;;2.20;99.90;;;;;;5052698;28;20402;-75
2024/01/12 04:56:33;;;;;;;;;;;2.20;99.90;;;;;;5048704;28;20007;-75
2024/01/12 04:58:58;;;;;;;;;;;2.20;99.90;;;;;;5034520;28;20450;-75
2024/01/12 05:01:23;;;;;;;;;;;2.20;99.90;;;;;;5048867;28;20376;-75
2024/01/12 05:03:49;;;;;;;;;;;2.20;99.90;;;;;;5046125;28;19975;-75
2024/01/12 05:06:15;;;;;;;;;;;2.20;99.90;;;;;;5066782;28;20008;-75
2024/01/12 05:08:40;;;;;;;;;;;2.10;99.90;;;;;;5049723;28;19961;-75
2024/01/12 05:11:06;;;;;;;;;;;2.10;99.90;;;;;;5052233;28;19946;-75
2024/01/12 05:13:31;;;;;;;;;;;2.10;99.90;;;;;;5047393;28;19950;-75
2024/01/12 05:15:57;;;;;;;;;;;2.10;99.90;;;;;;5051038;28;19926;-75
2024/01/12 05:18:22;;;;;;;;;;;2.00;99.90;;;;;;5051807;28;19924;-74
2024/01/12 05:20:48;;;;;;;;;;;2.40;99.90;;;;;;5043752;28;19928;-75
2024/01/12 05:23:13;;;;;;;;;;;1.90;99.90;;;;;;5053792;28;19920;-77
2024/01/12 05:25:39;;;;;;;;;;;1.90;99.90;;;;;;5049187;28;19989;-74
2024/01/12 05:28:04;;;;;;;;;;;1.90;99.90;;;;;;5055941;28;19966;-77
2024/01/12 05:30:30;;;;;;;;;;;1.90;99.90;;;;;;5056553;28;20383;-77
2024/01/12 05:32:56;;;;;;;;;;;1.80;99.90;;;;;;5050921;28;19921;-77
2024/01/12 05:35:21;;;;;;;;;;;1.80;99.90;;;;;;5051740;28;19920;-77
2024/01/12 05:37:47;;;;;;;;;;;1.80;99.90;;;;;;5044158;28;20427;-76
2024/01/12 05:40:12;;;;;;;;;;;1.80;99.90;;;;;;5033415;28;19963;-75
2024/01/12 05:42:38;;;;;;;;;;;1.80;99.90;;;;;;5055970;28;19916;-76
2024/01/12 05:45:03;;;;;;;;;;;1.90;99.90;;;;;;5063091;28;20145;-74
2024/01/12 05:47:29;;;;;;;;;;;1.90;99.90;;;;;;5047875;28;20011;-75
2024/01/12 05:49:55;;;;;;;;;;;2.00;99.90;;;;;;5060184;28;19968;-75
2024/01/12 05:52:20;;;;;;;;;;;2.00;99.90;;;;;;5045075;28;20468;-76
2024/01/12 05:54:46;;;;;;;;;;;2.00;99.90;;;;;;5035778;28;19927;-75
2024/01/12 05:57:11;;;;;;;;;;;2.00;99.90;;;;;;5050980;28;19973;-75
2024/01/12 05:59:37;;;;;;;;;;;2.10;99.90;;;;;;5059300;28;19947;-75
2024/01/12 06:02:03;;;;;;;;;;;2.10;99.90;;;;;;5061305;28;20442;-75
2024/01/12 06:04:28;;;;;;;;;;;2.10;99.90;;;;;;5049144;28;19927;-75
2024/01/12 06:06:54;;;;;;;;;;;2.10;99.90;;;;;;5046718;28;19920;-75
2024/01/12 06:09:20;;;;;;;;;;;2.20;99.90;;;;;;5047957;28;19954;-76
2024/01/12 06:11:45;;;;;;;;;;;2.20;99.90;;;;;;5050769;28;20652;-76
2024/01/12 06:14:14;;;;;;;;;;;2.30;99.90;;;;;;5066689;28;20015;-75
2024/01/12 06:16:39;;;;;;;;;;;2.80;99.90;;;;;;5051062;28;19924;-76
2024/01/12 06:19:05;;;;;;;;;;;2.30;99.90;;;;;;5042704;28;19931;-76
2024/01/12 06:21:30;;;;;;;;;;;2.30;99.90;;;;;;5047918;28;19930;-77
2024/01/12 06:23:56;;;;;;;;;;;2.30;99.90;;;;;;5041593;28;20017;-76
2024/01/12 06:26:21;;;;;;;;;;;2.40;99.90;;;;;;5049047;28;20429;-76
2024/01/12 06:28:47;;;;;;;;;;;2.40;99.90;;;;;;5048022;28;19951;-76
2024/01/12 06:31:12;;;;;;;;;;;2.40;99.90;;;;;;5047572;28;19924;-76
2024/01/12 06:33:38;;;;;;;;;;;2.40;99.90;;;;;;5050629;28;20512;-75
2024/01/12 06:36:04;;;;;;;;;;;2.40;99.90;;;;;;5043216;28;19924;-75
2024/01/12 06:38:29;;;;;;;;;;;2.50;99.90;;;;;;5059635;28;19970;-76
2024/01/12 06:40:55;;;;;;;;;;;2.50;99.90;;;;;;5055602;28;19928;-75
2024/01/12 06:43:21;;;;;;;;;;;3.80;99.90;;;;;;5053172;28;19928;-75
2024/01/12 06:45:46;;;;;;;;;;;2.50;99.90;;;;;;5045463;28;19927;-76
2024/01/12 06:48:12;;;;;;;;;;;2.60;99.90;;;;;;5047149;28;19929;-75
2024/01/12 06:50:37;;;;;;;;;;;2.60;99.90;;;;;;5055432;28;19921;-75
2024/01/12 06:53:08;;;;;;;;;;;2.60;99.90;;;;;;5054360;28;20010;-75
2024/01/12 06:55:37;;;;;;;;;;;2.70;99.90;;;;;;5051263;28;20004;-75
2024/01/12 06:58:03;;;;;;;;;;;2.70;99.90;;;;;;5047550;28;19928;-75
2024/01/12 07:00:29;;;;;;;;;;;2.80;99.90;;;;;;5058309;28;20419;-76
2024/01/12 07:02:54;;;;;;;;;;;3.10;99.90;;;;;;5048757;28;20015;-75
2024/01/12 07:05:20;;;;;;;;;;;2.80;99.90;;;;;;5049129;28;19927;-74
2024/01/12 07:07:45;;;;;;;;;;;4.30;99.90;;;;;;5047291;28;19920;-75
2024/01/12 07:10:14;;;;;;;;;;;2.90;99.90;;;;;;5049518;28;20337;-75
2024/01/12 07:12:39;;;;;;;;;;;2.90;99.90;;;;;;5065223;28;20010;-74
2024/01/12 07:15:05;;;;;;;;;;;2.90;99.90;;;;;;5068345;28;19924;-75
2024/01/12 07:17:31;;;;;;;;;;;2.90;99.90;;;;;;5051469;28;20019;-74
2024/01/12 07:19:57;;;;;;;;;;;2.90;99.90;;;;;;5063385;28;20007;-75
2024/01/12 07:22:22;;;;;;;;;;;2.90;99.90;;;;;;5062848;28;19927;-75
2024/01/12 07:24:48;;;;;;;;;;;2.90;99.90;;;;;;5049606;28;19921;-75
2024/01/12 07:27:14;;;;;;;;;;;2.90;99.90;;;;;;5034659;28;19920;-75
2024/01/12 07:29:39;;;;;;;;;;;3.00;99.90;;;;;;5047983;28;20019;-75
2024/01/12 07:32:05;;;;;;;;;;;3.00;99.90;;;;;;5064547;28;20243;-75
2024/01/12 07:34:31;;;;;;;;;;;3.00;99.90;;;;;;5068522;28;20577;-75
2024/01/12 07:36:57;;;;;;;;;;;3.10;99.90;;;;;;5049430;28;20431;-75
2024/01/12 07:39:23;;;;;;;;;;;2.90;99.90;;;;;;5067436;28;19926;-75
2024/01/12 07:41:49;;;;;;;;;;;2.90;99.90;;;;;;5069124;28;20286;-75
2024/01/12 07:44:15;;;;;;;;;;;2.90;99.90;;;;;;5062441;28;19916;-75
2024/01/12 07:46:41;;;;;;;;;;;2.90;99.90;;;;;;5046554;28;19924;-75
2024/01/12 07:49:06;;;;;;;;;;;3.30;99.90;;;;;;5050995;28;19970;-74
2024/01/12 07:51:32;;;;;;;;;;;2.90;99.90;;;;;;5067984;28;19920;-75
2024/01/12 07:53:57;;;;;;;;;;;3.00;99.90;;;;;;5049511;28;20448;-76
2024/01/12 07:56:23;;;;;;;;;;;3.00;99.90;;;;;;5036018;28;19917;-75
2024/01/12 07:58:48;;;;;;;;;;;3.00;99.90;;;;;;5032556;28;19964;-75
2024/01/12 08:01:14;;;;;;;;;;;3.00;99.90;;;;;;5046424;28;19963;-75
2024/01/12 08:03:40;;;;;;;;;;;3.00;99.90;;;;;;5064000;28;19978;-75
2024/01/12 08:06:06;;;;;;;;;;;4.30;99.90;;;;;;5047390;28;19920;-76
2024/01/12 08:08:32;;;;;;;;;;;3.10;99.90;;;;;;5044350;28;19923;-76
2024/01/12 08:10:57;;;;;;;;;;;3.00;99.90;;;;;;5050367;28;19920;-77
2024/01/12 08:13:23;;;;;;;;;;;3.10;99.90;;;;;;5067625;28;19920;-76
2024/01/12 08:15:49;;;;;;;;;;;3.30;99.90;;;;;;5067407;28;19927;-77
2024/01/12 08:18:14;;;;;;;;;;;3.10;99.90;;;;;;5050684;28;20331;-77
2024/01/12 08:20:40;;;;;;;;;;;3.10;99.90;;;;;;5051204;28;20307;-76
2024/01/12 08:23:05;;;;;;;;;;;3.10;99.90;;;;;;5048578;28;19920;-76
2024/01/12 08:25:32;;;;;;;;;;;3.20;99.90;;;;;;5067964;28;19928;-76
2024/01/12 08:27:57;;;;;;;;;;;4.90;99.90;;;;;;5049829;28;20359;-77
2024/01/12 08:30:23;;;;;;;;;;;3.40;99.90;;;;;;5049128;28;19925;-77
2024/01/12 08:32:48;;;;;;;;;;;3.40;99.90;;;;;;5050595;28;20371;-77
2024/01/12 08:35:14;;;;;;;;;;;3.40;99.90;;;;;;5050352;28;19966;-77
2024/01/12 08:37:39;;;;;;;;;;;3.50;99.90;;;;;;5051791;28;19966;-77
2024/01/12 08:40:05;;;;;;;;;;;3.60;99.90;;;;;;5064762;28;19921;-77
2024/01/12 08:42:32;;;;;;;;;;;3.60;99.90;;;;;;5051821;28;19928;-77
2024/01/12 08:44:57;;;;;;;;;;;3.60;99.90;;;;;;5053451;28;19925;-77
2024/01/12 08:47:23;;;;;;;;;;;3.70;99.90;;;;;;5053246;28;19921;-75
2024/01/12 08:49:48;;;;;;;;;;;3.70;99.90;;;;;;5052858;28;19920;-78
2024/01/12 08:52:14;;;;;;;;;;;3.70;99.90;;;;;;5071979;28;19967;-75
2024/01/12 08:54:39;;;;;;;;;;;3.70;99.90;;;;;;5053685;28;19927;-75
2024/01/12 08:57:05;;;;;;;;;;;3.70;99.90;;;;;;5050456;28;19921;-79
2024/01/12 08:59:30;;;;;;;;;;;3.80;99.90;;;;;;5048161;28;19925;-76
2024/01/12 09:01:57;;;;;;;;;;;3.80;99.90;;;;;;5060973;28;20046;-76
2024/01/12 09:04:23;;;;;;;;;;;3.80;99.90;;;;;;5069383;28;19921;-76
2024/01/12 09:06:48;;;;;;;;;;;3.80;99.90;;;;;;5050966;28;19931;-76
2024/01/12 09:09:14;;;;;;;;;;;4.10;99.90;;;;;;5071504;28;19927;-76
2024/01/12 09:11:40;;;;;;;;;;;3.80;99.90;;;;;;5052277;28;19927;-75
2024/01/12 09:14:05;;;;;;;;;;;3.90;99.90;;;;;;5050948;28;19986;-74
2024/01/12 09:16:31;;;;;;;;;;;3.90;99.90;;;;;;5071665;28;19931;-75
2024/01/12 09:18:56;;;;;;;;;;;3.90;99.90;;;;;;5050789;28;20437;-75
2024/01/12 09:21:23;;;;;;;;;;;4.10;99.90;;;;;;5051991;28;19981;-77
2024/01/12 09:23:49;;;;;;;;;;;3.90;99.90;;;;;;5051633;28;19921;-76
2024/01/12 09:26:15;;;;;;;;;;;3.90;99.90;;;;;;5066484;28;20291;-77
2024/01/12 09:28:41;;;;;;;;;;;3.90;99.90;;;;;;5050516;28;19931;-75
2024/01/12 09:31:08;;;;;;;;;;;4.00;99.90;;;;;;5051706;28;19920;-76
2024/01/12 09:33:33;;;;;;;;;;;4.00;99.90;;;;;;5051506;28;19924;-75
2024/01/12 09:35:59;;;;;;;;;;;4.00;99.90;;;;;;5052152;28;19920;-75
2024/01/12 09:38:24;;;;;;;;;;;4.00;99.90;;;;;;5051988;28;20304;-75
2024/01/12 09:40:50;;;;;;;;;;;4.10;99.90;;;;;;5051960;28;19959;-75
2024/01/12 09:43:19;;;;;;;;;;;4.40;99.90;;;;;;5069396;28;19927;-74
2024/01/12 09:45:45;;;;;;;;;;;4.10;99.90;;;;;;5050021;28;20449;-76
2024/01/12 09:48:11;;;;;;;;;;;4.10;99.90;;;;;;5045652;28;20027;-75
2024/01/12 09:50:38;;;;;;;;;;;4.20;99.90;;;;;;5063613;28;19927;-75
2024/01/12 09:53:03;;;;;;;;;;;4.20;99.90;;;;;;5050495;28;19958;-75
2024/01/12 09:55:29;;;;;;;;;;;4.20;99.90;;;;;;5053245;28;20418;-76
2024/01/12 09:57:55;;;;;;;;;;;4.20;99.90;;;;;;5048208;28;19970;-75
2024/01/12 10:00:23;;;;;;;;;;;4.20;99.90;;;;;;5039365;28;19921;-75
2024/01/12 10:02:48;;;;;;;;;;;4.20;99.90;;;;;;5045850;28;19962;-76
2024/01/12 10:05:14;;;;;;;;;;;4.20;99.90;;;;;;5051183;28;20353;-76
2024/01/12 10:07:40;;;;;;;;;;;4.30;99.90;;;;;;5056996;28;19974;-75
2024/01/12 10:10:05;;;;;;;;;;;4.20;99.90;;;;;;5058721;28;20414;-75
2024/01/12 10:12:31;;;;;;;;;;;4.30;99.90;;;;;;5049244;28;20015;-75
2024/01/12 10:15:00;;;;;;;;;;;4.40;99.90;;;;;;5050616;28;20368;-75
2024/01/12 10:17:26;;;;;;;;;;;4.30;99.90;;;;;;5051847;28;19920;-75
2024/01/12 10:19:51;;;;;;;;;;;4.30;99.90;;;;;;5051752;28;19974;-75
2024/01/12 10:22:17;;;;;;;;;;;4.40;99.90;;;;;;5050299;28;19924;-75
2024/01/12 10:24:42;;;;;;;;;;;4.40;99.90;;;;;;5052834;28;19931;-75
2024/01/12 10:27:08;;;;;;;;;;;4.40;99.90;;;;;;5035957;28;19975;-75
2024/01/12 10:29:40;;;;;;;;;;;4.40;99.90;;;;;;5030860;28;19956;-75
2024/01/12 10:32:05;;;;;;;;;;;4.40;99.90;;;;;;5035932;28;20015;-75
2024/01/12 10:34:35;;;;;;;;;;;4.40;99.90;;;;;;5052584;28;20023;-75
2024/01/12 10:37:02;;;;;;;;;;;4.40;99.90;;;;;;5046736;28;19921;-76
2024/01/12 10:39:29;;;;;;;;;;;4.50;99.90;;;;;;5032434;28;20404;-76
2024/01/12 10:41:57;;;;;;;;;;;4.50;99.90;;;;;;5038788;28;20386;-77
2024/01/12 10:44:26;;;;;;;;;;;4.50;99.90;;;;;;5051326;28;19928;-76
2024/01/12 10:46:53;;;;;;;;;;;4.50;99.90;;;;;;5051603;28;19974;-76
2024/01/12 10:49:26;;;;;;;;;;;4.50;99.90;;;;;;5051457;28;19965;-75
2024/01/12 10:52:03;;;;;;;;;;;4.50;99.90;;;;;;5048639;28;19920;-75
2024/01/12 10:54:34;;;;;;;;;;;4.50;99.90;;;;;;5052490;28;19920;-75
2024/01/12 10:57:00;;;;;;;;;;;4.50;99.90;;;;;;5045756;28;19920;-75
2024/01/12 10:59:27;;;;;;;;;;;4.50;99.90;;;;;;5046474;28;20399;-74
2024/01/12 11:01:53;;;;;;;;;;;4.50;99.90;;;;;;5051454;28;19921;-77
2024/01/12 11:04:19;;;;;;;;;;;4.50;99.90;;;;;;5047038;28;19995;-78
2024/01/12 11:06:45;;;;;;;;;;;4.50;99.90;;;;;;5050403;28;20045;-77
2024/01/12 11:09:12;;;;;;;;;;;4.60;99.90;;;;;;5069503;28;20390;-77
2024/01/12 11:11:42;;;;;;;;;;;4.60;99.90;;;;;;5049829;28;19928;-76
2024/01/12 11:14:08;;;;;;;;;;;4.60;99.90;;;;;;5037059;28;20351;-77
2024/01/12 11:16:34;;;;;;;;;;;4.60;99.90;;;;;;5031694;28;19920;-77
2024/01/12 11:19:00;;;;;;;;;;;4.60;99.90;;;;;;5030775;28;19927;-78
2024/01/12 11:21:25;;;;;;;;;;;4.70;99.90;;;;;;5041879;28;19928;-78
2024/01/12 11:23:51;;;;;;;;;;;4.70;99.90;;;;;;5036437;28;20008;-78
2024/01/12 11:26:18;;;;;;;;;;;4.70;99.90;;;;;;5053580;28;19928;-77
2024/01/12 11:28:43;;;;;;;;;;;4.70;99.90;;;;;;5050809;28;20066;-77
2024/01/12 11:31:09;;;;;;;;;;;4.80;99.90;;;;;;5050629;28;20188;-78
2024/01/12 11:33:39;;;;;;;;;;;4.80;99.90;;;;;;5042057;28;19932;-77
2024/01/12 11:36:09;;;;;;;;;;;4.40;99.90;;;;;;5031310;28;19932;-77
2024/01/12 11:38:42;;;;;;;;;;;4.80;99.90;;;;;;5064026;28;19934;-77
2024/01/12 11:41:11;;;;;;;;;;;4.80;99.90;;;;;;5035288;28;20287;-77
2024/01/12 11:43:37;;;;;;;;;;;4.80;99.90;;;;;;5031066;28;20368;-77
2024/01/12 11:46:04;;;;;;;;;;;5.50;99.90;;;;;;5038800;28;19955;-78
2024/01/12 11:48:30;;;;;;;;;;;4.90;99.90;;;;;;5068440;28;20019;-78
2024/01/12 11:50:56;;;;;;;;;;;4.90;99.90;;;;;;5068487;28;19927;-77
2024/01/12 11:53:21;;;;;;;;;;;5.00;99.90;;;;;;5049118;28;19928;-77
2024/01/12 11:55:47;;;;;;;;;;;5.00;99.90;;;;;;5046894;28;19930;-76
2024/01/12 11:58:12;;;;;;;;;;;5.00;99.90;;;;;;5033279;28;19920;-77
2024/01/12 12:00:38;;;;;;;;;;;5.50;99.90;;;;;;5051517;28;19956;-77
2024/01/12 12:03:04;;;;;;;;;;;5.00;99.90;;;;;;5047799;28;19925;-77
2024/01/12 12:05:29;;;;;;;;;;;5.00;99.90;;;;;;5043341;28;19990;-76
2024/01/12 12:07:55;;;;;;;;;;;5.00;99.90;;;;;;5047186;28;19931;-76
2024/01/12 12:10:22;;;;;;;;;;;5.00;99.90;;;;;;5050841;28;20035;-76
2024/01/12 12:12:47;;;;;;;;;;;5.00;99.90;;;;;;5067317;28;19921;-76
2024/01/12 12:15:14;;;;;;;;;;;5.00;99.90;;;;;;5069421;28;19927;-76
2024/01/12 12:17:41;;;;;;;;;;;5.00;99.90;;;;;;5054051;28;20299;-76
2024/01/12 12:20:13;;;;;;;;;;;5.00;99.90;;;;;;5047557;28;19920;-76
2024/01/12 12:22:45;;;;;;;;;;;5.80;99.90;;;;;;5071513;28;19920;-78
2024/01/12 12:25:11;;;;;;;;;;;5.00;99.90;;;;;;5051975;28;19935;-76
2024/01/12 12:27:41;;;;;;;;;;;5.00;99.90;;;;;;5051414;28;19928;-76
2024/01/12 12:30:10;;;;;;;;;;;5.10;99.90;;;;;;5071781;28;20368;-76
2024/01/12 12:32:43;;;;;;;;;;;5.10;99.90;;;;;;5054907;28;19928;-76
2024/01/12 12:35:13;;;;;;;;;;;5.10;99.90;;;;;;5053706;28;19920;-75
2024/01/12 12:37:39;;;;;;;;;;;5.10;99.90;;;;;;5055100;28;20220;-77
2024/01/12 12:40:06;;;;;;;;;;;5.10;99.90;;;;;;5049701;28;19971;-76
2024/01/12 12:42:32;;;;;;;;;;;5.10;99.90;;;;;;5058062;28;19927;-77
2024/01/12 12:44:58;;;;;;;;;;;5.10;99.90;;;;;;5050555;28;20399;-76
2024/01/12 12:47:24;;;;;;;;;;;5.10;99.90;;;;;;5053043;28;19959;-75
2024/01/12 12:49:50;;;;;;;;;;;5.10;99.90;;;;;;5051501;28;19927;-76
2024/01/12 12:52:16;;;;;;;;;;;5.10;99.90;;;;;;5054000;28;20281;-76
2024/01/12 12:54:42;;;;;;;;;;;6.30;99.90;;;;;;5052968;28;19924;-77
2024/01/12 12:57:07;;;;;;;;;;;5.40;99.90;;;;;;5052673;28;19920;-76
2024/01/12 12:59:33;;;;;;;;;;;5.10;99.90;;;;;;5036609;28;20337;-75
2024/01/12 13:01:59;;;;;;;;;;;5.20;99.90;;;;;;5051627;28;19949;-76
2024/01/12 13:04:25;;;;;;;;;;;5.10;99.90;;;;;;5052340;28;19924;-75
2024/01/12 13:06:51;;;;;;;;;;;5.10;99.90;;;;;;5071266;28;20026;-76
2024/01/12 13:09:16;;;;;;;;;;;5.20;99.90;;;;;;5054032;28;19927;-76
2024/01/12 13:11:42;;;;;;;;;;;5.20;99.90;;;;;;5052108;28;19935;-76
2024/01/12 13:14:07;;;;;;;;;;;5.20;99.90;;;;;;5050413;28;19924;-75
2024/01/12 13:16:35;;;;;;;;;;;5.20;99.90;;;;;;5051555;28;19920;-76
2024/01/12 13:19:01;;;;;;;;;;;5.20;99.90;;;;;;5052611;28;19947;-75
2024/01/12 13:21:26;;;;;;;;;;;5.10;99.90;;;;;;5052979;28;19920;-76
2024/01/12 13:23:52;;;;;;;;;;;5.20;99.90;;;;;;5050117;28;19920;-75
2024/01/12 13:26:17;;;;;;;;;;;5.20;99.90;;;;;;5052895;28;20291;-76
2024/01/12 13:28:43;;;;;;;;;;;5.20;99.90;;;;;;5071500;28;20490;-76
2024/01/12 13:31:08;;;;;;;;;;;5.50;99.90;;;;;;5051075;28;19924;-75
2024/01/12 13:33:34;;;;;;;;;;;5.20;99.90;;;;;;5051302;28;20433;-76
2024/01/12 13:36:00;;;;;;;;;;;5.20;99.90;;;;;;5067284;28;19974;-75
2024/01/12 13:38:25;;;;;;;;;;;5.20;99.90;;;;;;5069690;28;19959;-76
2024/01/12 13:40:51;;;;;;;;;;;5.30;99.90;;;;;;5041971;28;19925;-76
2024/01/12 13:43:17;;;;;;;;;;;5.30;99.90;;;;;;5032875;28;19924;-75
2024/01/12 13:45:42;;;;;;;;;;;5.20;99.90;;;;;;5049239;28;19920;-75
2024/01/12 13:48:08;;;;;;;;;;;5.20;99.90;;;;;;5052483;28;19958;-75
2024/01/12 13:50:34;;;;;;;;;;;5.20;99.90;;;;;;5053585;28;19967;-75
2024/01/12 13:53:03;;;;;;;;;;;5.20;99.90;;;;;;5052415;28;19924;-75
2024/01/12 13:55:28;;;;;;;;;;;5.10;99.90;;;;;;5053335;28;19921;-75
2024/01/12 13:57:54;;;;;;;;;;;5.10;99.90;;;;;;5068000;28;19933;-76
2024/01/12 14:00:20;;;;;;;;;;;5.10;99.90;;;;;;5042768;28;19947;-77
2024/01/12 14:02:46;;;;;;;;;;;5.00;99.90;;;;;;5050674;28;20357;-76
2024/01/12 14:05:11;;;;;;;;;;;5.00;99.90;;;;;;5052384;28;20010;-75
2024/01/12 14:07:38;;;;;;;;;;;5.00;99.90;;;;;;5051625;28;19924;-75
2024/01/12 14:10:04;;;;;;;;;;;5.00;99.90;;;;;;5047602;28;19935;-75
2024/01/12 14:12:30;;;;;;;;;;;5.00;99.90;;;;;;5037964;28;19921;-75
2024/01/12 14:14:56;;;;;;;;;;;5.00;99.90;;;;;;5050395;28;20372;-76
2024/01/12 14:17:21;;;;;;;;;;;5.00;99.90;;;;;;5049133;28;20379;-75
2024/01/12 14:19:47;;;;;;;;;;;5.00;99.90;;;;;;5050581;28;19924;-76
2024/01/12 14:22:13;;;;;;;;;;;5.00;99.90;;;;;;5042928;28;19921;-76
2024/01/12 14:24:39;;;;;;;;;;;5.00;99.90;;;;;;5041365;28;19920;-77